createdAt,value
2018-07-01T00:00:19.542Z,0.00
2018-07-01T00:01:19.419Z,0.00
2018-07-01T00:02:19.388Z,0.00
2018-07-01T00:03:19.344Z,0.00
2018-07-01T00:04:19.310Z,0.00
2018-07-01T00:05:19.305Z,0.00
2018-07-01T00:06:19.257Z,0.00
2018-07-01T00:07:19.216Z,0.00
2018-07-01T00:08:19.190Z,0.00
2018-07-01T00:09:19.160Z,0.00
2018-07-01T00:10:19.126Z,0.00
2018-07-01T00:11:19.090Z,0.00
2018-07-01T00:12:19.061Z,0.00
2018-07-01T00:13:19.026Z,0.00
2018-07-01T00:14:18.993Z,0.00
2018-07-01T00:15:18.968Z,0.00
2018-07-01T00:16:18.930Z,0.00
2018-07-01T00:17:18.899Z,0.00
2018-07-01T00:18:18.871Z,0.00
2018-07-01T00:19:18.838Z,0.00
2018-07-01T00:20:18.812Z,0.00
2018-07-01T00:21:18.776Z,0.00
2018-07-01T00:22:18.746Z,0.00
2018-07-01T00:23:18.711Z,0.00
2018-07-01T00:24:18.678Z,0.00
2018-07-01T00:25:18.647Z,0.00
2018-07-01T00:26:18.618Z,0.00
2018-07-01T00:27:18.584Z,0.00
2018-07-01T00:28:18.545Z,0.00
2018-07-01T00:29:18.519Z,0.00
2018-07-01T00:30:18.487Z,0.00
2018-07-01T00:31:18.457Z,0.00
2018-07-01T00:32:18.426Z,0.00
2018-07-01T00:33:18.393Z,0.00
2018-07-01T00:34:18.361Z,0.00
2018-07-01T00:35:18.334Z,0.00
2018-07-01T00:36:18.295Z,0.00
2018-07-01T00:37:18.264Z,0.00
2018-07-01T00:38:18.232Z,0.00
2018-07-01T00:39:18.200Z,0.00
2018-07-01T00:40:18.176Z,0.00
2018-07-01T00:41:18.139Z,0.00
2018-07-01T00:42:18.103Z,0.00
2018-07-01T00:43:18.076Z,0.00
2018-07-01T00:44:18.046Z,0.00
2018-07-01T00:45:18.012Z,0.00
2018-07-01T00:46:17.985Z,0.00
2018-07-01T00:47:17.953Z,0.00
2018-07-01T00:48:17.912Z,0.00
2018-07-01T00:49:17.885Z,0.00
2018-07-01T00:50:17.857Z,0.00
2018-07-01T00:51:17.817Z,0.00
2018-07-01T00:52:17.791Z,0.00
2018-07-01T00:53:17.764Z,0.00
2018-07-01T00:54:17.722Z,0.00
2018-07-01T00:55:17.696Z,0.00
2018-07-01T00:56:17.663Z,0.00
2018-07-01T00:57:17.648Z,0.00
2018-07-01T00:58:17.602Z,0.00
2018-07-01T00:59:17.566Z,0.00
2018-07-01T01:00:17.529Z,0.00
2018-07-01T01:01:17.500Z,0.00
2018-07-01T01:02:17.466Z,0.00
2018-07-01T01:03:17.427Z,0.00
2018-07-01T01:04:17.407Z,0.00
2018-07-01T01:05:17.371Z,0.00
2018-07-01T01:06:17.339Z,0.00
2018-07-01T01:07:17.306Z,0.00
2018-07-01T01:08:17.282Z,0.00
2018-07-01T01:09:17.245Z,0.00
2018-07-01T01:10:17.207Z,0.00
2018-07-01T01:11:17.173Z,0.00
2018-07-01T01:12:17.161Z,0.00
2018-07-01T01:13:17.114Z,0.00
2018-07-01T01:14:17.081Z,0.00
2018-07-01T01:15:17.041Z,0.00
2018-07-01T01:16:17.022Z,0.00
2018-07-01T01:17:16.985Z,0.00
2018-07-01T01:18:16.958Z,0.00
2018-07-01T01:19:16.927Z,0.00
2018-07-01T01:20:16.881Z,0.00
2018-07-01T01:21:16.857Z,0.00
2018-07-01T01:22:16.830Z,0.00
2018-07-01T01:23:16.793Z,0.00
2018-07-01T01:24:16.767Z,0.00
2018-07-01T01:25:16.728Z,0.00
2018-07-01T01:26:16.696Z,0.00
2018-07-01T01:27:16.662Z,0.00
2018-07-01T01:28:16.630Z,0.00
2018-07-01T01:29:16.596Z,0.00
2018-07-01T01:30:16.564Z,0.00
2018-07-01T01:31:16.537Z,0.00
2018-07-01T01:32:16.501Z,0.00
2018-07-01T01:33:16.467Z,0.00
2018-07-01T01:34:16.437Z,0.00
2018-07-01T01:35:16.399Z,0.00
2018-07-01T01:36:16.380Z,0.00
2018-07-01T01:37:16.347Z,0.00
2018-07-01T01:38:16.306Z,0.00
2018-07-01T01:39:16.280Z,0.00
2018-07-01T01:40:16.237Z,0.00
2018-07-01T01:41:16.207Z,0.00
2018-07-01T01:42:16.177Z,0.00
2018-07-01T01:43:16.150Z,0.00
2018-07-01T01:44:16.121Z,0.00
2018-07-01T01:45:16.079Z,0.00
2018-07-01T01:46:16.049Z,0.00
2018-07-01T01:47:16.015Z,0.00
2018-07-01T01:48:15.991Z,0.00
2018-07-01T01:49:15.951Z,0.00
2018-07-01T01:50:15.917Z,0.00
2018-07-01T01:51:15.888Z,0.00
2018-07-01T01:52:15.844Z,0.00
2018-07-01T01:53:15.816Z,0.00
2018-07-01T01:54:15.785Z,0.00
2018-07-01T01:55:15.753Z,0.00
2018-07-01T01:56:15.722Z,0.00
2018-07-01T01:57:15.688Z,0.00
2018-07-01T01:58:15.654Z,0.00
2018-07-01T01:59:15.623Z,0.00
2018-07-01T02:00:15.586Z,0.00
2018-07-01T02:01:15.555Z,0.00
2018-07-01T02:02:15.528Z,0.00
2018-07-01T02:03:15.491Z,0.00
2018-07-01T02:04:15.457Z,0.00
2018-07-01T02:05:15.432Z,0.00
2018-07-01T02:06:15.391Z,0.00
2018-07-01T02:07:15.359Z,0.00
2018-07-01T02:08:15.329Z,0.00
2018-07-01T02:09:15.294Z,0.00
2018-07-01T02:10:15.263Z,0.00
2018-07-01T02:11:15.233Z,0.00
2018-07-01T02:12:15.192Z,0.00
2018-07-01T02:13:15.165Z,0.00
2018-07-01T02:14:15.130Z,0.00
2018-07-01T02:15:15.093Z,0.00
2018-07-01T02:16:15.071Z,0.00
2018-07-01T02:17:15.057Z,0.00
2018-07-01T02:18:14.998Z,0.00
2018-07-01T02:19:14.963Z,0.00
2018-07-01T02:20:14.937Z,0.00
2018-07-01T02:21:14.908Z,0.00
2018-07-01T02:22:14.871Z,0.00
2018-07-01T02:23:14.848Z,0.00
2018-07-01T02:24:14.802Z,0.00
2018-07-01T02:25:14.777Z,0.00
2018-07-01T02:26:14.740Z,0.00
2018-07-01T02:27:14.711Z,0.00
2018-07-01T02:28:14.679Z,0.00
2018-07-01T02:29:14.652Z,0.00
2018-07-01T02:30:14.610Z,0.00
2018-07-01T02:31:14.583Z,0.00
2018-07-01T02:32:14.545Z,0.00
2018-07-01T02:33:14.511Z,0.00
2018-07-01T02:34:14.483Z,0.00
2018-07-01T02:35:14.481Z,0.00
2018-07-01T02:36:14.411Z,0.00
2018-07-01T02:37:14.378Z,0.00
2018-07-01T02:38:14.350Z,0.00
2018-07-01T02:39:14.310Z,0.00
2018-07-01T02:40:14.291Z,0.00
2018-07-01T02:41:14.249Z,4.00
2018-07-01T02:42:14.223Z,4.00
2018-07-01T02:43:14.185Z,0.00
2018-07-01T02:44:14.151Z,0.00
2018-07-01T02:45:14.129Z,4.00
2018-07-01T02:46:14.098Z,4.00
2018-07-01T02:47:14.059Z,0.00
2018-07-01T02:48:14.023Z,4.00
2018-07-01T02:49:13.992Z,4.00
2018-07-01T02:50:13.952Z,4.00
2018-07-01T02:51:13.918Z,4.00
2018-07-01T02:52:13.914Z,4.00
2018-07-01T02:53:13.857Z,4.00
2018-07-01T02:54:13.831Z,8.00
2018-07-01T02:55:13.802Z,8.00
2018-07-01T02:56:13.764Z,8.00
2018-07-01T02:57:13.723Z,8.00
2018-07-01T02:58:13.695Z,8.00
2018-07-01T02:59:13.657Z,8.00
2018-07-01T03:00:13.639Z,12.00
2018-07-01T03:01:13.596Z,16.00
2018-07-01T03:02:13.563Z,20.00
2018-07-01T03:03:13.533Z,20.00
2018-07-01T03:04:13.491Z,20.00
2018-07-01T03:05:13.464Z,24.00
2018-07-01T03:06:13.432Z,24.00
2018-07-01T03:07:13.397Z,28.00
2018-07-01T03:08:13.367Z,32.00
2018-07-01T03:09:13.333Z,36.00
2018-07-01T03:10:13.298Z,40.00
2018-07-01T03:11:13.265Z,40.00
2018-07-01T03:12:13.241Z,48.00
2018-07-01T03:13:13.205Z,48.00
2018-07-01T03:14:13.178Z,56.00
2018-07-01T03:15:13.137Z,60.00
2018-07-01T03:16:13.098Z,68.00
2018-07-01T03:17:13.067Z,72.00
2018-07-01T03:18:13.032Z,76.00
2018-07-01T03:19:12.999Z,88.00
2018-07-01T03:20:12.977Z,92.00
2018-07-01T03:21:12.939Z,100.00
2018-07-01T03:22:12.900Z,108.00
2018-07-01T03:23:12.873Z,116.00
2018-07-01T03:24:12.835Z,128.00
2018-07-01T03:25:12.811Z,140.00
2018-07-01T03:26:12.779Z,148.00
2018-07-01T03:27:12.737Z,160.00
2018-07-01T03:28:12.706Z,176.00
2018-07-01T03:29:12.671Z,192.00
2018-07-01T03:30:12.633Z,208.00
2018-07-01T03:31:12.604Z,228.00
2018-07-01T03:32:12.581Z,240.00
2018-07-01T03:33:12.547Z,260.00
2018-07-01T03:34:12.509Z,276.00
2018-07-01T03:35:12.500Z,296.00
2018-07-01T03:36:12.438Z,316.00
2018-07-01T03:37:12.402Z,332.00
2018-07-01T03:38:12.385Z,356.00
2018-07-01T03:39:12.339Z,384.00
2018-07-01T03:40:12.305Z,404.00
2018-07-01T03:41:12.270Z,432.00
2018-07-01T03:42:12.237Z,456.00
2018-07-01T03:43:12.206Z,484.00
2018-07-01T03:44:12.175Z,512.00
2018-07-01T03:45:12.145Z,544.00
2018-07-01T03:46:12.111Z,580.00
2018-07-01T03:47:12.076Z,612.00
2018-07-01T03:48:12.041Z,644.00
2018-07-01T03:49:12.006Z,676.00
2018-07-01T03:50:11.987Z,708.00
2018-07-01T03:51:11.940Z,740.00
2018-07-01T04:08:28.057Z,1292.00
2018-07-01T04:09:27.994Z,1316.00
2018-07-01T04:10:27.957Z,1348.00
2018-07-01T04:11:27.969Z,1372.00
2018-07-01T04:12:27.872Z,1400.00
2018-07-01T04:13:27.851Z,1424.00
2018-07-01T04:14:27.807Z,1456.00
2018-07-01T04:15:27.760Z,1484.00
2018-07-01T04:16:27.725Z,1516.00
2018-07-01T04:17:27.692Z,1540.00
2018-07-01T04:18:27.652Z,1568.00
2018-07-01T04:19:27.627Z,1592.00
2018-07-01T04:20:27.587Z,1620.00
2018-07-01T04:21:27.552Z,1644.00
2018-07-01T04:22:27.575Z,1668.00
2018-07-01T04:23:27.482Z,1692.00
2018-07-01T04:24:27.448Z,1720.00
2018-07-01T04:25:27.418Z,1744.00
2018-07-01T04:26:27.388Z,1772.00
2018-07-01T04:27:27.348Z,1796.00
2018-07-01T04:28:27.317Z,1816.00
2018-07-01T04:29:27.280Z,1840.00
2018-07-01T04:30:27.252Z,1864.00
2018-07-01T04:31:27.227Z,1884.00
2018-07-01T04:32:27.192Z,1904.00
2018-07-01T04:33:27.155Z,1928.00
2018-07-01T04:34:27.120Z,1948.00
2018-07-01T04:35:27.082Z,1968.00
2018-07-01T04:36:27.053Z,1996.00
2018-07-01T04:37:27.019Z,2012.00
2018-07-01T04:38:26.981Z,2032.00
2018-07-01T04:39:26.954Z,2052.00
2018-07-01T04:40:26.931Z,2076.00
2018-07-01T04:41:26.888Z,2088.00
2018-07-01T04:42:27.732Z,2108.00
2018-07-01T04:43:26.823Z,2132.00
2018-07-01T04:44:26.790Z,2152.00
2018-07-01T04:45:26.758Z,2176.00
2018-07-01T04:46:26.732Z,2204.00
2018-07-01T04:47:26.686Z,2212.00
2018-07-01T04:48:26.652Z,2232.00
2018-07-01T04:49:26.649Z,2256.00
2018-07-01T04:50:26.593Z,2280.00
2018-07-01T04:51:26.559Z,2300.00
2018-07-01T04:52:26.560Z,2316.00
2018-07-01T04:53:26.493Z,2340.00
2018-07-01T04:54:26.464Z,2364.00
2018-07-01T04:55:26.493Z,2380.00
2018-07-01T04:56:26.395Z,2404.00
2018-07-01T04:57:26.369Z,2416.00
2018-07-01T04:58:26.332Z,2436.00
2018-07-01T04:59:26.294Z,2460.00
2018-07-01T05:00:26.266Z,2476.00
2018-07-01T05:01:26.238Z,2496.00
2018-07-01T05:02:26.241Z,2512.00
2018-07-01T05:03:26.174Z,2528.00
2018-07-01T05:04:26.138Z,2548.00
2018-07-01T05:05:26.118Z,2568.00
2018-07-01T05:06:26.070Z,2588.00
2018-07-01T05:07:26.035Z,2612.00
2018-07-01T05:08:26.004Z,2640.00
2018-07-01T05:09:25.967Z,2664.00
2018-07-01T05:10:25.941Z,2692.00
2018-07-01T05:11:25.908Z,2712.00
2018-07-01T05:12:25.878Z,2752.00
2018-07-01T05:13:25.840Z,2816.00
2018-07-01T05:14:25.810Z,2876.00
2018-07-01T05:15:25.778Z,2920.00
2018-07-01T05:16:25.748Z,2940.00
2018-07-01T05:17:25.714Z,2968.00
2018-07-01T05:18:25.682Z,2988.00
2018-07-01T05:19:25.649Z,3008.00
2018-07-01T05:20:25.616Z,3024.00
2018-07-01T05:21:25.581Z,3036.00
2018-07-01T05:22:25.551Z,3040.00
2018-07-01T05:23:25.523Z,3052.00
2018-07-01T05:24:25.500Z,3052.00
2018-07-01T05:25:25.471Z,3052.00
2018-07-01T05:26:25.429Z,3040.00
2018-07-01T05:27:25.394Z,3040.00
2018-07-01T05:28:25.367Z,3044.00
2018-07-01T05:29:25.337Z,3060.00
2018-07-01T05:30:25.300Z,3096.00
2018-07-01T05:31:25.278Z,3140.00
2018-07-01T05:32:25.234Z,3180.00
2018-07-01T05:33:25.201Z,3228.00
2018-07-01T05:34:25.168Z,3284.00
2018-07-01T05:35:25.148Z,3340.00
2018-07-01T05:36:25.112Z,3404.00
2018-07-01T05:37:25.082Z,3476.00
2018-07-01T05:38:25.048Z,3548.00
2018-07-01T05:39:25.025Z,3632.00
2018-07-01T05:40:24.982Z,3716.00
2018-07-01T05:41:24.955Z,3808.00
2018-07-01T05:42:24.927Z,3892.00
2018-07-01T05:43:24.897Z,3988.00
2018-07-01T05:44:24.862Z,4092.00
2018-07-01T05:45:24.825Z,4200.00
2018-07-01T05:46:24.804Z,4316.00
2018-07-01T05:47:24.768Z,4436.00
2018-07-01T05:48:24.743Z,4568.00
2018-07-01T05:49:24.736Z,4688.00
2018-07-01T05:50:24.696Z,4768.00
2018-07-01T05:51:24.643Z,4792.00
2018-07-01T05:52:24.608Z,4788.00
2018-07-01T05:53:24.578Z,4784.00
2018-07-01T05:54:24.547Z,4768.00
2018-07-01T05:55:24.519Z,4768.00
2018-07-01T05:56:24.488Z,4752.00
2018-07-01T05:57:24.456Z,4740.00
2018-07-01T05:58:24.423Z,4712.00
2018-07-01T05:59:24.399Z,4672.00
2018-07-01T06:00:24.373Z,4632.00
2018-07-01T06:01:24.337Z,4568.00
2018-07-01T06:02:24.300Z,4504.00
2018-07-01T06:03:24.270Z,4440.00
2018-07-01T06:04:24.234Z,4372.00
2018-07-01T06:05:24.207Z,4292.00
2018-07-01T06:06:24.174Z,4184.00
2018-07-01T06:07:24.153Z,4084.00
2018-07-01T06:08:24.124Z,4028.00
2018-07-01T06:09:24.086Z,4040.00
2018-07-01T06:10:24.052Z,4116.00
2018-07-01T06:11:24.022Z,4220.00
2018-07-01T06:12:23.990Z,4328.00
2018-07-01T06:13:23.954Z,4460.00
2018-07-01T06:14:23.926Z,4608.00
2018-07-01T06:15:23.899Z,4708.00
2018-07-01T06:16:23.927Z,4760.00
2018-07-01T06:17:23.834Z,4776.00
2018-07-01T06:18:23.807Z,4760.00
2018-07-01T06:19:23.787Z,4756.00
2018-07-01T06:20:23.751Z,4732.00
2018-07-01T06:21:23.720Z,4752.00
2018-07-01T06:22:23.686Z,4688.00
2018-07-01T06:23:23.650Z,4688.00
2018-07-01T06:24:23.618Z,4660.00
2018-07-01T06:25:23.587Z,4652.00
2018-07-01T06:26:23.558Z,4628.00
2018-07-01T06:27:23.529Z,4640.00
2018-07-01T06:28:23.503Z,4620.00
2018-07-01T06:29:23.477Z,4652.00
2018-07-01T06:30:23.438Z,4680.00
2018-07-01T06:31:23.418Z,4708.00
2018-07-01T06:32:23.373Z,4708.00
2018-07-01T06:33:23.350Z,4764.00
2018-07-01T06:34:23.323Z,4772.00
2018-07-01T06:35:23.285Z,4816.00
2018-07-01T06:36:23.253Z,4860.00
2018-07-01T06:37:23.229Z,4896.00
2018-07-01T06:38:23.199Z,4952.00
2018-07-01T06:39:23.168Z,5004.00
2018-07-01T06:40:23.160Z,5020.00
2018-07-01T06:41:23.110Z,5052.00
2018-07-01T06:42:23.083Z,5036.00
2018-07-01T06:43:23.041Z,5012.00
2018-07-01T06:44:23.008Z,4984.00
2018-07-01T06:45:22.978Z,4980.00
2018-07-01T06:46:22.948Z,4932.00
2018-07-01T06:47:22.918Z,4904.00
2018-07-01T06:48:22.891Z,4896.00
2018-07-01T06:49:22.861Z,4872.00
2018-07-01T06:50:22.833Z,4848.00
2018-07-01T06:51:22.800Z,4848.00
2018-07-01T06:52:22.774Z,4872.00
2018-07-01T06:53:22.739Z,4892.00
2018-07-01T06:54:22.718Z,4908.00
2018-07-01T06:55:22.682Z,4944.00
2018-07-01T06:56:22.712Z,4968.00
2018-07-01T06:57:22.613Z,5008.00
2018-07-01T06:58:22.601Z,5028.00
2018-07-01T06:59:22.558Z,5028.00
2018-07-01T07:00:22.530Z,5048.00
2018-07-01T07:01:22.502Z,5044.00
2018-07-01T07:02:22.541Z,5044.00
2018-07-01T07:03:22.435Z,5044.00
2018-07-01T07:04:22.464Z,5000.00
2018-07-01T07:05:22.393Z,4924.00
2018-07-01T07:06:22.351Z,4820.00
2018-07-01T07:07:22.320Z,4736.00
2018-07-01T07:08:22.289Z,4628.00
2018-07-01T07:09:22.254Z,4580.00
2018-07-01T07:10:22.230Z,4548.00
2018-07-01T07:11:22.196Z,4556.00
2018-07-01T07:12:22.180Z,4572.00
2018-07-01T07:13:22.154Z,4580.00
2018-07-01T07:14:22.105Z,4588.00
2018-07-01T07:15:22.074Z,4636.00
2018-07-01T07:16:22.074Z,4680.00
2018-07-01T07:17:22.013Z,4744.00
2018-07-01T07:18:21.984Z,4804.00
2018-07-01T07:19:21.956Z,4916.00
2018-07-01T07:20:21.928Z,5008.00
2018-07-01T07:21:21.891Z,5124.00
2018-07-01T07:22:21.864Z,5280.00
2018-07-01T07:23:21.838Z,5252.00
2018-07-01T07:24:21.814Z,5412.00
2018-07-01T07:25:21.782Z,5396.00
2018-07-01T07:26:21.757Z,5500.00
2018-07-01T07:27:21.719Z,5480.00
2018-07-01T07:28:21.684Z,5320.00
2018-07-01T07:29:21.651Z,5396.00
2018-07-01T07:30:21.622Z,5540.00
2018-07-01T07:31:21.599Z,5544.00
2018-07-01T07:32:21.572Z,5604.00
2018-07-01T07:33:21.553Z,5576.00
2018-07-01T07:34:21.516Z,5552.00
2018-07-01T07:35:21.489Z,5556.00
2018-07-01T07:36:21.444Z,5564.00
2018-07-01T07:37:21.432Z,5600.00
2018-07-01T07:38:21.399Z,5576.00
2018-07-01T07:39:21.378Z,5584.00
2018-07-01T07:40:21.327Z,5572.00
2018-07-01T07:41:21.294Z,5564.00
2018-07-01T07:42:21.273Z,5540.00
2018-07-01T07:43:21.252Z,5524.00
2018-07-01T07:44:21.215Z,5500.00
2018-07-01T07:45:21.236Z,5464.00
2018-07-01T07:46:21.163Z,5444.00
2018-07-01T07:47:21.126Z,5408.00
2018-07-01T07:48:21.088Z,5368.00
2018-07-01T07:49:21.059Z,5312.00
2018-07-01T07:50:21.031Z,5320.00
2018-07-01T07:51:21.007Z,5288.00
2018-07-01T07:52:20.997Z,5248.00
2018-07-01T07:53:20.944Z,5212.00
2018-07-01T07:54:20.914Z,5164.00
2018-07-01T07:55:20.880Z,5124.00
2018-07-01T07:56:20.859Z,5080.00
2018-07-01T07:57:20.829Z,5068.00
2018-07-01T07:58:20.797Z,5000.00
2018-07-01T07:59:20.770Z,4964.00
2018-07-01T08:00:20.739Z,4864.00
2018-07-01T08:01:29.754Z,4736.00
2018-07-01T08:02:20.679Z,4600.00
2018-07-01T08:03:20.905Z,4484.00
2018-07-01T08:04:20.641Z,4432.00
2018-07-01T08:05:20.645Z,4416.00
2018-07-01T08:06:20.562Z,4404.00
2018-07-01T08:07:20.601Z,4416.00
2018-07-01T08:08:20.513Z,4392.00
2018-07-01T08:09:20.480Z,4408.00
2018-07-01T08:10:20.439Z,4372.00
2018-07-01T08:11:20.468Z,4368.00
2018-07-01T08:12:20.384Z,4384.00
2018-07-01T08:13:20.361Z,4356.00
2018-07-01T08:14:20.326Z,4364.00
2018-07-01T08:15:20.335Z,4332.00
2018-07-01T08:16:20.269Z,4340.00
2018-07-01T08:17:20.237Z,4336.00
2018-07-01T08:18:20.206Z,4328.00
2018-07-01T08:19:20.198Z,4336.00
2018-07-01T08:20:20.357Z,4320.00
2018-07-01T08:21:20.133Z,4320.00
2018-07-01T08:22:20.094Z,4328.00
2018-07-01T08:23:20.057Z,4316.00
2018-07-01T08:24:20.054Z,4328.00
2018-07-01T08:25:20.004Z,4324.00
2018-07-01T08:26:19.984Z,4316.00
2018-07-01T08:27:20.082Z,4288.00
2018-07-01T08:28:19.963Z,4292.00
2018-07-01T08:29:19.883Z,4284.00
2018-07-01T08:30:19.872Z,4300.00
2018-07-01T08:31:19.826Z,4292.00
2018-07-01T08:32:19.803Z,4280.00
2018-07-01T08:33:19.768Z,4312.00
2018-07-01T08:34:19.743Z,4272.00
2018-07-01T08:35:19.726Z,4272.00
2018-07-01T08:36:19.688Z,4296.00
2018-07-01T08:37:19.667Z,4284.00
2018-07-01T08:38:19.617Z,4296.00
2018-07-01T08:39:19.615Z,4276.00
2018-07-01T08:40:19.597Z,4284.00
2018-07-01T08:41:19.534Z,4268.00
2018-07-01T08:42:19.495Z,4280.00
2018-07-01T08:43:19.464Z,4280.00
2018-07-01T08:44:19.441Z,4268.00
2018-07-01T08:45:19.410Z,4268.00
2018-07-01T08:46:19.421Z,4280.00
2018-07-01T08:47:19.353Z,4256.00
2018-07-01T08:48:19.349Z,4260.00
2018-07-01T08:49:19.293Z,4264.00
2018-07-01T08:50:19.262Z,4276.00
2018-07-01T08:51:19.230Z,4268.00
2018-07-01T08:52:19.247Z,4240.00
2018-07-01T08:53:19.183Z,4256.00
2018-07-01T08:54:19.153Z,4268.00
2018-07-01T08:55:19.110Z,4236.00
2018-07-01T08:56:19.088Z,4252.00
2018-07-01T08:57:19.056Z,4248.00
2018-07-01T08:58:19.027Z,4220.00
2018-07-01T08:59:18.997Z,4224.00
2018-07-01T09:00:18.969Z,4216.00
2018-07-01T09:01:18.935Z,4236.00
2018-07-01T09:02:18.905Z,4248.00
2018-07-01T09:03:18.877Z,4252.00
2018-07-01T09:04:18.847Z,4260.00
2018-07-01T09:05:18.818Z,4240.00
2018-07-01T09:06:18.790Z,4236.00
2018-07-01T09:07:18.765Z,4200.00
2018-07-01T09:08:18.783Z,4232.00
2018-07-01T09:09:18.710Z,4216.00
2018-07-01T09:10:18.667Z,4208.00
2018-07-01T09:11:18.651Z,4208.00
2018-07-01T09:12:18.619Z,4204.00
2018-07-01T09:13:18.582Z,4204.00
2018-07-01T09:14:18.551Z,4212.00
2018-07-01T09:15:18.525Z,4208.00
2018-07-01T09:16:18.493Z,4204.00
2018-07-01T09:17:18.497Z,4196.00
2018-07-01T09:18:18.443Z,4188.00
2018-07-01T09:19:18.409Z,4200.00
2018-07-01T09:20:18.378Z,4200.00
2018-07-01T09:21:18.346Z,4204.00
2018-07-01T09:22:18.323Z,4192.00
2018-07-01T09:23:18.292Z,4200.00
2018-07-01T09:24:18.258Z,4188.00
2018-07-01T09:25:18.238Z,4192.00
2018-07-01T09:26:18.202Z,4204.00
2018-07-01T09:27:18.280Z,4204.00
2018-07-01T09:28:18.166Z,4192.00
2018-07-01T09:29:18.121Z,4184.00
2018-07-01T09:30:18.085Z,4200.00
2018-07-01T09:31:18.067Z,4192.00
2018-07-01T09:32:18.031Z,4192.00
2018-07-01T09:33:18.010Z,4192.00
2018-07-01T09:34:18.021Z,4188.00
2018-07-01T09:35:17.940Z,4172.00
2018-07-01T09:36:17.970Z,4188.00
2018-07-01T09:37:17.887Z,4184.00
2018-07-01T09:38:17.852Z,4180.00
2018-07-01T09:39:17.825Z,4180.00
2018-07-01T09:40:17.805Z,4168.00
2018-07-01T09:41:17.760Z,4184.00
2018-07-01T09:42:17.732Z,4156.00
2018-07-01T09:43:17.721Z,4152.00
2018-07-01T09:44:17.686Z,4188.00
2018-07-01T09:45:17.644Z,4164.00
2018-07-01T09:46:17.619Z,4140.00
2018-07-01T09:47:17.591Z,4164.00
2018-07-01T09:48:17.557Z,4136.00
2018-07-01T09:49:17.533Z,4136.00
2018-07-01T09:50:17.548Z,4144.00
2018-07-01T09:51:17.480Z,4132.00
2018-07-01T09:52:17.448Z,4152.00
2018-07-01T09:53:17.412Z,4108.00
2018-07-01T09:54:17.382Z,4124.00
2018-07-01T09:55:17.358Z,4140.00
2018-07-01T09:56:17.330Z,4112.00
2018-07-01T09:57:17.302Z,4116.00
2018-07-01T09:58:17.266Z,4104.00
2018-07-01T09:59:17.255Z,4108.00
2018-07-01T10:00:17.208Z,4084.00
2018-07-01T10:01:17.181Z,4116.00
2018-07-01T10:02:17.149Z,4096.00
2018-07-01T10:03:17.120Z,4100.00
2018-07-01T10:04:17.107Z,4100.00
2018-07-01T10:05:17.059Z,4088.00
2018-07-01T10:06:17.037Z,4080.00
2018-07-01T10:07:17.005Z,4080.00
2018-07-01T10:08:16.972Z,4076.00
2018-07-01T10:20:56.701Z,4032.00
2018-07-01T10:21:56.629Z,4056.00
2018-07-01T10:22:56.595Z,4040.00
2018-07-01T10:23:56.564Z,4028.00
2018-07-01T10:24:56.533Z,4028.00
2018-07-01T10:25:56.501Z,4036.00
2018-07-01T10:26:56.463Z,4024.00
2018-07-01T10:27:56.446Z,4012.00
2018-07-01T10:28:56.404Z,4004.00
2018-07-01T10:29:56.379Z,4012.00
2018-07-01T10:30:56.347Z,4008.00
2018-07-01T10:31:56.325Z,4008.00
2018-07-01T10:32:56.290Z,4000.00
2018-07-01T10:33:56.248Z,3996.00
2018-07-01T10:34:56.217Z,4016.00
2018-07-01T10:35:56.193Z,4008.00
2018-07-01T10:36:56.166Z,3988.00
2018-07-01T10:37:56.138Z,3988.00
2018-07-01T10:38:56.199Z,3980.00
2018-07-01T10:39:56.076Z,3988.00
2018-07-01T10:40:56.043Z,3992.00
2018-07-01T10:41:56.010Z,4008.00
2018-07-01T10:42:55.994Z,3972.00
2018-07-01T10:43:55.956Z,4000.00
2018-07-01T10:44:55.925Z,3980.00
2018-07-01T10:45:55.905Z,3976.00
2018-07-01T10:46:55.870Z,3976.00
2018-07-01T10:47:55.842Z,3968.00
2018-07-01T10:48:55.810Z,3960.00
2018-07-01T10:49:55.787Z,3976.00
2018-07-01T10:50:55.757Z,3980.00
2018-07-01T10:51:55.722Z,3992.00
2018-07-01T10:52:55.694Z,4000.00
2018-07-01T10:53:55.660Z,3972.00
2018-07-01T10:54:55.634Z,3960.00
2018-07-01T10:55:55.618Z,3972.00
2018-07-01T10:56:55.579Z,3980.00
2018-07-01T10:57:55.549Z,3976.00
2018-07-01T10:58:55.516Z,3980.00
2018-07-01T10:59:55.494Z,4004.00
2018-07-01T11:00:55.462Z,3972.00
2018-07-01T11:01:55.437Z,3980.00
2018-07-01T11:02:55.414Z,3976.00
2018-07-01T11:03:55.374Z,3992.00
2018-07-01T11:04:55.368Z,3988.00
2018-07-01T11:05:55.319Z,3984.00
2018-07-01T11:06:55.284Z,3988.00
2018-07-01T11:07:55.255Z,3992.00
2018-07-01T11:08:55.236Z,4008.00
2018-07-01T11:09:55.205Z,3988.00
2018-07-01T11:10:55.179Z,4008.00
2018-07-01T11:11:55.148Z,3992.00
2018-07-01T11:12:55.112Z,3992.00
2018-07-01T11:13:55.084Z,3996.00
2018-07-01T11:14:55.059Z,3996.00
2018-07-01T11:15:55.040Z,4000.00
2018-07-01T11:16:55.007Z,3984.00
2018-07-01T11:17:55.028Z,4008.00
2018-07-01T11:18:55.263Z,4000.00
2018-07-01T11:19:55.446Z,4020.00
2018-07-01T11:20:54.886Z,4008.00
2018-07-01T11:21:55.009Z,4016.00
2018-07-01T11:22:55.817Z,4016.00
2018-07-01T11:23:55.377Z,3992.00
2018-07-01T11:24:54.791Z,3996.00
2018-07-01T11:25:54.740Z,4036.00
2018-07-01T11:26:54.777Z,4004.00
2018-07-01T11:27:54.687Z,4004.00
2018-07-01T11:28:54.659Z,4008.00
2018-07-01T11:29:54.629Z,4008.00
2018-07-01T11:30:54.600Z,4012.00
2018-07-01T11:31:54.572Z,4012.00
2018-07-01T11:32:54.541Z,4008.00
2018-07-01T11:33:54.515Z,4004.00
2018-07-01T11:34:54.499Z,4004.00
2018-07-01T11:35:54.456Z,4012.00
2018-07-01T11:36:54.425Z,4012.00
2018-07-01T11:37:54.395Z,4008.00
2018-07-01T11:38:54.368Z,4024.00
2018-07-01T11:39:54.339Z,4008.00
2018-07-01T11:40:54.312Z,4020.00
2018-07-01T11:41:54.292Z,4012.00
2018-07-01T11:42:54.260Z,4124.00
2018-07-01T11:43:54.229Z,3944.00
2018-07-01T11:44:54.198Z,4084.00
2018-07-01T11:45:54.167Z,4056.00
2018-07-01T11:46:54.158Z,4012.00
2018-07-01T11:47:54.114Z,3988.00
2018-07-01T11:48:54.085Z,4000.00
2018-07-01T11:49:54.055Z,3996.00
2018-07-01T11:50:54.028Z,3896.00
2018-07-01T11:51:53.997Z,3892.00
2018-07-01T11:52:53.979Z,3908.00
2018-07-01T11:53:53.954Z,3908.00
2018-07-01T11:54:53.922Z,3904.00
2018-07-01T11:55:53.888Z,3916.00
2018-07-01T11:56:53.863Z,3912.00
2018-07-01T11:57:53.827Z,3916.00
2018-07-01T11:58:53.899Z,3912.00
2018-07-01T11:59:53.785Z,3904.00
2018-07-01T12:00:54.065Z,3896.00
2018-07-01T12:01:53.784Z,3892.00
2018-07-01T12:02:53.696Z,3904.00
2018-07-01T12:03:53.658Z,3904.00
2018-07-01T12:05:16.204Z,3908.00
2018-07-01T12:05:53.622Z,3912.00
2018-07-01T12:06:53.578Z,3912.00
2018-07-01T12:07:53.553Z,3900.00
2018-07-01T12:08:53.527Z,3892.00
2018-07-01T12:09:53.486Z,3904.00
2018-07-01T12:10:53.461Z,3900.00
2018-07-01T12:11:53.453Z,3896.00
2018-07-01T12:12:53.408Z,3892.00
2018-07-01T12:13:53.379Z,3888.00
2018-07-01T12:14:53.379Z,3896.00
2018-07-01T12:15:53.329Z,3916.00
2018-07-01T12:16:53.291Z,3908.00
2018-07-01T12:17:53.262Z,3892.00
2018-07-01T12:18:53.242Z,3860.00
2018-07-01T12:19:53.207Z,3892.00
2018-07-01T12:20:53.181Z,3884.00
2018-07-01T12:21:53.146Z,3892.00
2018-07-01T12:22:53.126Z,3868.00
2018-07-01T12:23:53.102Z,3884.00
2018-07-01T12:24:53.078Z,3896.00
2018-07-01T12:25:53.045Z,3884.00
2018-07-01T12:26:53.026Z,3876.00
2018-07-01T12:27:52.997Z,3896.00
2018-07-01T12:28:53.069Z,3900.00
2018-07-01T12:29:52.925Z,3884.00
2018-07-01T12:30:52.894Z,3884.00
2018-07-01T12:31:52.868Z,3876.00
2018-07-01T12:32:52.848Z,3872.00
2018-07-01T12:33:52.816Z,3872.00
2018-07-01T12:34:52.800Z,3872.00
2018-07-01T12:35:52.767Z,3860.00
2018-07-01T12:36:52.729Z,3852.00
2018-07-01T12:37:52.704Z,3888.00
2018-07-01T12:38:52.675Z,3856.00
2018-07-01T12:39:52.645Z,3872.00
2018-07-01T12:40:52.635Z,3844.00
2018-07-01T12:41:52.611Z,3860.00
2018-07-01T12:42:52.554Z,3852.00
2018-07-01T12:43:52.528Z,3872.00
2018-07-01T12:44:52.501Z,3844.00
2018-07-01T12:45:52.477Z,3844.00
2018-07-01T12:46:52.451Z,3836.00
2018-07-01T12:47:52.423Z,3840.00
2018-07-01T12:48:52.400Z,3832.00
2018-07-01T12:49:52.356Z,3836.00
2018-07-01T12:50:52.334Z,3828.00
2018-07-01T12:51:52.305Z,3840.00